Time;durP1;ratioP1;P1;durP2;ratioP2;P2;SDS_P1;SDS_P2;PMS_P1;PMS_P2;Temp;Humidity;BMP_temperature;BMP_pressure;BME280_temperature;BME280_humidity;BME280_pressure;Samples;Min_cycle;Max_cycle;Signal;HPM_P1;HPM_P2
2022/11/16 00:00:48;;;;;;;0.85;0.57;;;;;;;13.43;78.58;99844.88;5077493;28;20074;-80
2022/11/16 00:03:14;;;;;;;0.30;0.30;;;;;;;13.43;78.88;99848.41;5088298;28;20484;-80
2022/11/16 00:05:40;;;;;;;0.10;0.10;;;;;;;13.42;78.93;99852.00;5085822;28;20090;-80
2022/11/16 00:08:06;;;;;;;0.10;0.10;;;;;;;13.45;79.01;99853.66;5083896;28;20039;-79
2022/11/16 00:10:32;;;;;;;0.10;0.10;;;;;;;13.47;78.75;99851.81;5075158;28;20117;-80
2022/11/16 00:12:58;;;;;;;0.15;0.15;;;;;;;13.43;78.92;99839.56;5076830;28;20035;-79
2022/11/16 00:15:25;;;;;;;0.10;0.10;;;;;;;13.49;78.75;99838.41;5087748;28;20067;-79
2022/11/16 00:17:51;;;;;;;0.20;0.20;;;;;;;13.52;78.55;99839.13;5099364;28;20758;-79
2022/11/16 00:20:17;;;;;;;0.22;0.22;;;;;;;13.49;78.97;99839.25;5094585;28;20044;-79
2022/11/16 00:22:43;;;;;;;1.15;1.15;;;;;;;13.52;78.55;99836.47;5086998;28;20029;-79
2022/11/16 00:25:10;;;;;;;0.30;0.30;;;;;;;13.50;78.88;99837.47;5088111;28;20021;-78
2022/11/16 00:27:36;;;;;;;0.20;0.20;;;;;;;13.53;78.29;99843.53;5083080;28;20025;-78
2022/11/16 00:30:03;;;;;;;0.10;0.10;;;;;;;13.50;78.37;99846.31;5094666;28;20302;-78
2022/11/16 00:32:30;;;;;;;0.52;0.52;;;;;;;13.45;78.56;99845.69;5096152;28;20024;-78
2022/11/16 00:34:56;;;;;;;0.10;0.10;;;;;;;13.43;79.09;99853.75;5092729;28;20028;-79
2022/11/16 00:37:22;;;;;;;1.17;0.73;;;;;;;13.50;78.92;99846.31;5078342;28;20060;-77
2022/11/16 00:39:48;;;;;;;0.10;0.10;;;;;;;13.44;79.18;99843.94;5070748;28;20047;-77
2022/11/16 00:42:14;;;;;;;0.13;0.13;;;;;;;13.52;78.88;99846.22;5071489;28;20644;-77
2022/11/16 00:44:40;;;;;;;0.30;0.30;;;;;;;13.54;78.41;99839.91;5075418;28;20031;-77
2022/11/16 00:47:06;;;;;;;0.55;0.55;;;;;;;13.56;78.18;99843.38;5079412;28;20055;-77
2022/11/16 00:49:32;;;;;;;0.10;0.10;;;;;;;13.57;78.18;99847.75;5071192;28;20203;-77
2022/11/16 00:51:58;;;;;;;0.10;0.10;;;;;;;13.59;78.51;99843.22;5076395;28;20031;-77
2022/11/16 00:54:24;;;;;;;0.10;0.10;;;;;;;13.59;78.54;99835.25;5080050;28;20028;-77
2022/11/16 00:56:50;;;;;;;0.15;0.15;;;;;;;13.62;78.42;99836.00;5080461;28;20066;-77
2022/11/16 00:59:17;;;;;;;0.90;0.90;;;;;;;13.63;78.24;99835.06;5080474;28;20504;-77
2022/11/16 01:01:43;;;;;;;0.47;0.47;;;;;;;13.64;78.24;99828.81;5071665;28;20055;-76
2022/11/16 01:04:09;;;;;;;0.10;0.10;;;;;;;13.64;78.69;99839.47;5073341;28;20032;-76
2022/11/16 01:06:35;;;;;;;0.20;0.20;;;;;;;13.59;78.62;99835.25;5076706;28;20028;-77
2022/11/16 01:09:01;;;;;;;0.10;0.10;;;;;;;13.64;78.30;99834.16;5072421;28;20109;-77
2022/11/16 01:14:14;;;;;;;0.10;0.10;;;;;;;13.66;78.78;99837.59;5074912;28;20044;-76
2022/11/16 01:16:40;;;;;;;0.63;0.63;;;;;;;13.68;78.73;99835.72;5073863;28;20020;-77
2022/11/16 01:19:08;;;;;;;0.28;0.28;;;;;;;13.65;78.56;99830.56;5080884;28;20115;-79
2022/11/16 01:21:34;;;;;;;2.92;0.65;;;;;;;13.70;78.57;99839.16;5076725;28;20028;-79
2022/11/16 01:24:00;;;;;;;0.60;0.60;;;;;;;13.64;79.08;99835.00;5079897;28;20395;-79
2022/11/16 01:26:27;;;;;;;0.10;0.10;;;;;;;13.70;78.53;99833.84;5079167;28;20095;-79
2022/11/16 01:28:53;;;;;;;0.50;0.50;;;;;;;13.65;78.93;99836.72;5078490;28;20036;-79
2022/11/16 01:31:20;;;;;;;0.20;0.20;;;;;;;13.72;78.59;99826.63;5073504;28;20029;-78
2022/11/16 01:33:46;;;;;;;0.40;0.40;;;;;;;13.73;78.77;99834.56;5075364;28;20056;-77
2022/11/16 01:36:13;;;;;;;0.22;0.22;;;;;;;13.71;78.67;99831.09;5071929;28;20028;-76
2022/11/16 01:38:41;;;;;;;0.10;0.10;;;;;;;13.74;78.47;99830.97;5070156;28;20036;-78
2022/11/16 01:41:08;;;;;;;0.45;0.45;;;;;;;13.75;78.58;99832.66;5076416;28;20490;-76
2022/11/16 01:43:50;;;;;;;0.10;0.10;;;;;;;13.82;78.19;99833.25;5073980;28;20400;-77
2022/11/16 01:46:16;;;;;;;0.20;0.20;;;;;;;13.79;78.17;99838.69;5081207;28;20051;-76
2022/11/16 01:48:43;;;;;;;0.20;0.20;;;;;;;13.79;78.31;99833.38;5072914;28;20103;-76
2022/11/16 01:51:09;;;;;;;1.38;0.63;;;;;;;13.79;78.16;99824.53;5071535;28;20043;-76
2022/11/16 01:53:36;;;;;;;0.80;0.80;;;;;;;13.78;78.55;99825.47;5071184;28;20029;-76
2022/11/16 01:56:03;;;;;;;0.10;0.10;;;;;;;13.73;78.36;99825.69;5076785;28;20446;-76
2022/11/16 01:58:29;;;;;;;0.10;0.10;;;;;;;13.76;78.72;99820.22;5072994;28;20020;-76
2022/11/16 02:00:56;;;;;;;0.13;0.13;;;;;;;13.76;78.28;99822.91;5078240;28;20024;-76
2022/11/16 02:03:22;;;;;;;0.30;0.30;;;;;;;13.75;78.32;99824.69;5076572;28;20036;-77
2022/11/16 02:11:56;;;;;;;0.20;0.20;;;;;;;13.81;77.99;99818.19;5087768;28;20412;-78
2022/11/16 02:17:31;;;;;;;0.25;0.25;;;;;;;13.80;78.02;99820.94;5047455;28;20407;-78
2022/11/16 02:28:42;;;;;;;0.10;0.10;;;;;;;13.72;78.48;99834.63;5066905;28;20405;-78
2022/11/16 02:31:13;;;;;;;0.10;0.10;;;;;;;13.66;78.10;99832.28;5042984;28;20040;-78
2022/11/16 02:33:43;;;;;;;0.30;0.30;;;;;;;13.64;78.04;99828.81;5049882;28;20033;-78
2022/11/16 02:36:13;;;;;;;0.47;0.47;;;;;;;13.64;78.11;99828.81;5046548;28;20056;-78
2022/11/16 02:38:46;;;;;;;0.73;0.55;;;;;;;13.59;78.43;99824.59;5042747;28;20025;-78
2022/11/16 02:41:18;;;;;;;0.10;0.10;;;;;;;13.62;78.16;99825.38;5049802;28;20037;-77
2022/11/16 02:43:55;;;;;;;0.45;0.45;;;;;;;13.59;78.34;99821.06;5036405;28;20041;-78
2022/11/16 02:46:28;;;;;;;0.15;0.15;;;;;;;13.61;78.03;99820.97;5054740;28;20017;-78
2022/11/16 02:48:59;;;;;;;0.25;0.25;;;;;;;13.59;78.05;99826.38;5052014;28;20038;-78
2022/11/16 02:51:27;;;;;;;0.10;0.10;;;;;;;13.57;78.19;99826.47;5048730;28;20075;-78
2022/11/16 02:59:18;;;;;;;0.10;0.10;;;;;;;13.52;78.29;99817.84;5128319;27;20379;-78
2022/11/16 03:01:55;;;;;;;0.10;0.10;;;;;;;13.53;78.11;99822.22;5112791;28;20032;-78
2022/11/16 03:04:29;;;;;;;0.20;0.20;;;;;;;13.51;78.13;99826.75;5116513;28;20022;-79
2022/11/16 03:06:57;;;;;;;0.10;0.10;;;;;;;13.47;78.31;99830.50;5110987;28;20480;-79
2022/11/16 03:09:27;;;;;;;0.30;0.30;;;;;;;13.47;77.88;99837.63;5112188;28;20028;-79
2022/11/16 03:11:58;;;;;;;0.20;0.20;;;;;;;13.44;77.91;99838.63;5113390;28;20394;-78
2022/11/16 03:14:47;;;;;;;0.10;0.10;;;;;;;13.47;78.10;99838.50;5125990;28;20402;-78
2022/11/16 03:17:23;;;;;;;0.10;0.10;;;;;;;13.42;77.97;99821.88;5116081;28;20028;-78
2022/11/16 03:20:14;;;;;;;2.05;0.93;;;;;;;13.41;77.74;99830.81;5107560;28;20109;-79
2022/11/16 03:25:18;;;;;;;0.10;0.10;;;;;;;13.31;78.18;99832.13;5075373;27;1870070;-78
2022/11/16 03:30:29;;;;;;;0.13;0.13;;;;;;;13.28;78.01;99838.47;5091024;27;20376;-78
2022/11/16 03:33:06;;;;;;;0.65;0.65;;;;;;;13.27;78.09;99842.03;5077058;28;20398;-78
2022/11/16 03:38:10;;;;;;;0.40;0.40;;;;;;;13.10;78.75;99840.19;5128952;27;1200515;-78
2022/11/16 03:40:38;;;;;;;0.10;0.10;;;;;;;13.18;78.00;99839.84;5139884;27;20023;-77
2022/11/16 03:43:06;;;;;;;0.30;0.30;;;;;;;13.19;78.35;99839.75;5150603;27;20492;-77
2022/11/16 03:45:32;;;;;;;0.10;0.10;;;;;;;13.19;78.30;99834.44;5150492;27;20048;-77
2022/11/16 03:48:00;;;;;;;0.43;0.43;;;;;;;13.18;77.77;99832.72;5148249;27;20038;-77
2022/11/16 03:50:26;;;;;;;0.10;0.10;;;;;;;13.20;77.63;99841.50;5146601;27;20058;-78
2022/11/16 03:52:52;;;;;;;0.10;0.10;;;;;;;13.14;77.77;99847.09;5146557;27;20469;-77
2022/11/16 03:55:19;;;;;;;0.10;0.10;;;;;;;13.16;77.88;99849.69;5141064;27;20035;-77
2022/11/16 03:57:45;;;;;;;0.22;0.22;;;;;;;13.13;77.65;99853.34;5146343;27;20060;-77
2022/11/16 04:00:11;;;;;;;0.50;0.50;;;;;;;13.08;77.70;99847.38;5147963;27;20059;-78
2022/11/16 04:02:38;;;;;;;0.55;0.55;;;;;;;13.01;77.88;99851.25;5141031;27;20034;-77
2022/11/16 04:24:40;;;;;;;0.15;0.15;;;;;;;12.71;76.94;99865.88;5141728;27;20552;-77
2022/11/16 04:29:58;;;;;;;0.10;0.10;;;;;;;12.60;77.62;99869.00;5149262;27;20042;-77
2022/11/16 04:37:58;;;;;;;0.38;0.38;;;;;;;12.45;77.88;99869.69;5144398;27;20039;-78
2022/11/16 04:40:28;;;;;;;0.10;0.10;;;;;;;12.44;78.21;99878.59;5139786;27;20504;-78
2022/11/16 04:42:56;;;;;;;0.10;0.10;;;;;;;12.50;77.36;99873.00;5144065;27;20401;-78
2022/11/16 04:48:10;;;;;;;0.10;0.10;;;;;;;12.44;77.38;99862.63;5137079;27;20039;-78
2022/11/16 04:50:37;;;;;;;0.10;0.10;;;;;;;12.44;77.68;99857.31;5134780;27;20541;-78
2022/11/16 04:53:04;;;;;;;3.70;1.23;;;;;;;12.42;77.31;99859.19;5133919;27;20027;-78
2022/11/16 04:55:30;;;;;;;0.17;0.17;;;;;;;12.42;77.50;99859.19;5135426;27;20024;-78
2022/11/16 04:57:56;;;;;;;0.10;0.10;;;;;;;12.39;77.38;99861.97;5135420;27;20079;-78
2022/11/16 05:00:22;;;;;;;0.10;0.10;;;;;;;12.38;77.35;99863.75;5128496;27;20042;-77
2022/11/16 05:02:49;;;;;;;0.10;0.10;;;;;;;12.36;76.99;99864.75;5135030;27;20023;-77
2022/11/16 05:05:15;;;;;;;0.15;0.15;;;;;;;12.34;77.58;99856.84;5135635;27;20636;-78
2022/11/16 05:07:41;;;;;;;0.40;0.40;;;;;;;12.35;77.25;99863.03;5135257;27;20022;-80
2022/11/16 05:10:09;;;;;;;0.10;0.10;;;;;;;12.34;77.10;99869.28;5135980;27;20035;-80
2022/11/16 05:12:37;;;;;;;0.10;0.10;;;;;;;12.30;77.36;99866.75;5136910;27;20053;-80
2022/11/16 05:15:05;;;;;;;0.10;0.10;;;;;;;12.27;77.56;99881.94;5136993;27;20034;-81
2022/11/16 05:17:31;;;;;;;0.10;0.10;;;;;;;12.26;77.22;99881.09;5121613;27;20091;-80
2022/11/16 05:24:32;;;;;;;0.32;0.32;;;;;;;12.23;77.25;99880.38;5123157;27;20067;-81
2022/11/16 05:25:51;;;;;;;0.20;0.20;;;;;;;12.17;77.08;99877.97;5130067;27;20042;-79
2022/11/16 05:28:17;;;;;;;0.10;0.10;;;;;;;12.13;76.91;99880.72;5134211;27;20109;-79
2022/11/16 05:30:47;;;;;;;0.32;0.32;;;;;;;12.12;77.30;99888.78;5138273;27;20015;-79
2022/11/16 05:33:15;;;;;;;0.30;0.30;;;;;;;12.04;77.91;99890.91;5127399;27;20444;-80
2022/11/16 05:35:41;;;;;;;0.10;0.10;;;;;;;11.98;77.75;99892.84;5136582;27;20091;-80
2022/11/16 05:38:07;;;;;;;0.10;0.10;;;;;;;11.95;77.27;99892.06;5131715;27;20041;-79
2022/11/16 05:40:33;;;;;;;0.68;0.68;;;;;;;11.93;77.46;99891.31;5136182;27;20387;-80
2022/11/16 05:42:59;;;;;;;0.10;0.10;;;;;;;11.87;77.20;99889.75;5128386;27;20099;-80
2022/11/16 05:45:28;;;;;;;0.10;0.10;;;;;;;11.90;77.03;99896.72;5137157;27;20035;-81
2022/11/16 05:47:54;;;;;;;0.25;0.25;;;;;;;11.84;77.08;99897.84;5135697;27;20019;-79
2022/11/16 05:50:20;;;;;;;0.10;0.10;;;;;;;11.72;76.69;99888.56;5132225;27;20035;-80
2022/11/16 05:52:46;;;;;;;0.10;0.10;;;;;;;11.74;76.43;99885.84;5135934;27;20481;-80
2022/11/16 05:55:12;;;;;;;0.10;0.10;;;;;;;11.69;76.22;99885.19;5141327;27;20565;-81
2022/11/16 05:57:38;;;;;;;0.10;0.10;;;;;;;11.63;76.37;99881.00;5132934;27;20027;-81
2022/11/16 06:00:05;;;;;;;0.65;0.35;;;;;;;11.60;76.68;99891.72;5133595;27;20058;-81
2022/11/16 06:02:33;;;;;;;0.95;0.95;;;;;;;11.51;76.26;99892.09;5127347;27;20027;-80
2022/11/16 06:05:02;;;;;;;0.10;0.10;;;;;;;11.52;75.99;99889.38;5128214;27;20035;-81
2022/11/16 06:07:28;;;;;;;0.10;0.10;;;;;;;11.48;76.14;99898.38;5124392;27;20035;-80
2022/11/16 06:09:54;;;;;;;0.22;0.22;;;;;;;11.43;76.05;99895.91;5134097;27;20027;-80
2022/11/16 06:12:20;;;;;;;3.20;1.13;;;;;;;11.35;75.68;99897.13;5136517;27;20059;-81
2022/11/16 06:14:46;;;;;;;0.10;0.10;;;;;;;11.31;75.52;99905.22;5138795;27;20019;-81
2022/11/16 06:17:13;;;;;;;0.10;0.10;;;;;;;11.25;75.55;99908.09;5127352;27;20073;-80
2022/11/16 06:19:39;;;;;;;0.10;0.10;;;;;;;11.19;75.75;99910.97;5125358;27;20489;-80
2022/11/16 06:22:06;;;;;;;0.13;0.13;;;;;;;11.12;75.45;99912.13;5124046;27;20036;-81
2022/11/16 06:24:32;;;;;;;0.13;0.13;;;;;;;11.02;75.02;99908.09;5136476;27;20027;-81
2022/11/16 06:26:58;;;;;;;0.10;0.10;;;;;;;10.96;74.88;99915.31;5129057;27;20027;-81
2022/11/16 06:29:24;;;;;;;2.30;0.73;;;;;;;10.88;75.49;99920.06;5121686;27;20031;-81
2022/11/16 06:31:51;;;;;;;0.10;0.10;;;;;;;10.81;75.18;99918.53;5126626;27;20512;-81
2022/11/16 06:34:17;;;;;;;0.30;0.30;;;;;;;10.75;75.51;99924.06;5121702;27;20023;-81
2022/11/16 06:36:43;;;;;;;0.10;0.10;;;;;;;10.66;75.42;99912.84;5130286;27;20031;-81
2022/11/16 06:39:10;;;;;;;0.15;0.15;;;;;;;10.61;75.33;99912.16;5134183;27;20111;-81
2022/11/16 06:41:37;;;;;;;0.20;0.20;;;;;;;10.56;74.93;99930.00;5131496;27;20403;-81
2022/11/16 06:44:03;;;;;;;0.20;0.20;;;;;;;10.49;75.11;99929.34;5132415;27;20028;-81
2022/11/16 06:46:31;;;;;;;0.20;0.20;;;;;;;10.42;75.13;99932.25;5127937;27;20038;-81
2022/11/16 06:49:03;;;;;;;0.20;0.20;;;;;;;10.37;75.49;99937.72;5123092;27;20039;-81
2022/11/16 06:51:30;;;;;;;0.20;0.20;;;;;;;10.30;75.10;99939.66;5122838;27;20023;-80
2022/11/16 06:53:56;;;;;;;0.10;0.10;;;;;;;10.26;75.59;99940.69;5126330;27;20380;-81
2022/11/16 06:56:23;;;;;;;0.15;0.15;;;;;;;10.19;75.85;99939.16;5126748;27;20369;-81
2022/11/16 06:58:49;;;;;;;0.10;0.10;;;;;;;10.16;75.88;99942.75;5130508;27;20101;-82
2022/11/16 07:01:16;;;;;;;0.10;0.10;;;;;;;10.16;75.77;99941.91;5125134;27;20067;-81
2022/11/16 07:03:43;;;;;;;0.10;0.10;;;;;;;10.07;76.09;99944.84;5121966;27;20048;-82
2022/11/16 07:06:11;;;;;;;0.10;0.10;;;;;;;10.10;75.90;99953.53;5125450;27;20108;-80
2022/11/16 07:08:37;;;;;;;0.20;0.20;;;;;;;10.06;75.98;99953.72;5128720;27;20029;-80
2022/11/16 07:11:06;;;;;;;0.10;0.10;;;;;;;10.04;75.63;99946.69;5126754;27;20032;-78
2022/11/16 07:13:33;;;;;;;0.57;0.57;;;;;;;10.01;76.03;99949.41;5142092;27;20039;-82
2022/11/16 07:16:08;;;;;;;0.10;0.10;;;;;;;10.01;75.71;99951.22;5134597;27;20039;-79
2022/11/16 07:18:36;;;;;;;0.10;0.10;;;;;;;9.96;75.14;99951.34;5134787;27;20051;-79
2022/11/16 07:21:18;;;;;;;0.10;0.10;;;;;;;9.97;75.45;99953.09;5132202;27;20031;-79
2022/11/16 07:23:44;;;;;;;0.10;0.10;;;;;;;9.91;75.72;99947.13;5125853;28;20061;-80
2022/11/16 07:26:11;;;;;;;0.10;0.10;;;;;;;9.87;75.77;99951.66;5129319;27;20023;-80
2022/11/16 07:28:37;;;;;;;0.10;0.10;;;;;;;9.82;75.93;99949.13;5127950;27;20051;-80
2022/11/16 07:31:05;;;;;;;0.20;0.20;;;;;;;9.79;75.79;99958.94;5117918;27;20066;-80
2022/11/16 07:33:31;;;;;;;0.13;0.13;;;;;;;9.76;75.95;99957.28;5127634;27;20034;-79
2022/11/16 07:36:02;;;;;;;0.20;0.20;;;;;;;9.82;76.18;99964.13;5121053;28;20481;-80
2022/11/16 07:38:30;;;;;;;0.10;0.10;;;;;;;9.81;76.18;99965.06;5121078;27;20074;-80
2022/11/16 07:41:00;;;;;;;0.20;0.20;;;;;;;9.83;76.23;99971.16;5120148;28;20050;-81
2022/11/16 07:43:30;;;;;;;0.10;0.10;;;;;;;9.84;76.35;99978.19;5128520;28;20029;-81
2022/11/16 07:46:04;;;;;;;0.10;0.10;;;;;;;9.86;76.40;99981.66;5119831;27;20024;-77
2022/11/16 07:48:33;;;;;;;0.10;0.10;;;;;;;9.86;76.42;99977.22;5127452;28;20492;-79
2022/11/16 07:51:01;;;;;;;0.10;0.10;;;;;;;9.85;76.95;99986.06;5130399;28;20031;-80
2022/11/16 07:53:28;;;;;;;0.20;0.20;;;;;;;9.87;77.10;99978.97;5118665;28;20491;-80
2022/11/16 07:55:54;;;;;;;0.10;0.10;;;;;;;9.85;77.34;99985.22;5127274;28;20020;-84
2022/11/16 07:58:21;;;;;;;0.20;0.20;;;;;;;9.85;77.57;99990.50;5121070;28;20115;-81
2022/11/16 08:00:47;;;;;;;0.10;0.10;;;;;;;9.86;77.76;99992.25;5126952;27;20042;-82
2022/11/16 08:03:14;;;;;;;0.17;0.17;;;;;;;9.88;77.76;99993.03;5129377;27;20023;-82
2022/11/16 08:05:40;;;;;;;0.15;0.15;;;;;;;9.90;78.08;99996.53;5128728;27;20054;-81
2022/11/16 08:08:06;;;;;;;0.10;0.10;;;;;;;9.95;77.37;99991.94;5134937;28;21095;-81
2022/11/16 08:10:32;;;;;;;0.10;0.10;;;;;;;10.00;77.40;99997.97;5122324;28;20035;-82
2022/11/16 08:12:59;;;;;;;0.20;0.20;;;;;;;10.00;78.15;99997.97;5135710;28;20027;-82
2022/11/16 08:15:25;;;;;;;0.10;0.10;;;;;;;10.06;78.17;99998.72;5124966;28;20026;-80
2022/11/16 08:17:51;;;;;;;0.10;0.10;;;;;;;10.11;78.33;99996.78;5135286;27;20027;-80
2022/11/16 08:20:17;;;;;;;0.10;0.10;;;;;;;10.13;78.19;99998.47;5127436;28;20038;-81
2022/11/16 08:22:44;;;;;;;0.30;0.30;;;;;;;10.17;78.46;99999.22;5130520;27;20027;-80
2022/11/16 08:25:11;;;;;;;0.10;0.10;;;;;;;10.20;78.05;100002.66;5120894;27;20087;-80
2022/11/16 08:27:37;;;;;;;0.20;0.20;;;;;;;10.20;78.89;100001.75;5125399;27;20023;-80
2022/11/16 08:30:08;;;;;;;0.10;0.10;;;;;;;10.25;78.66;99991.03;5118773;27;20058;-81
2022/11/16 08:32:36;;;;;;;0.38;0.38;;;;;;;10.29;78.83;99997.97;5117182;28;20032;-80
2022/11/16 08:35:02;;;;;;;0.30;0.30;;;;;;;10.36;78.57;99996.88;5125673;27;20106;-82
2022/11/16 08:37:30;;;;;;;0.10;0.10;;;;;;;10.35;79.00;99995.09;5134072;27;20037;-82
2022/11/16 08:39:56;;;;;;;0.20;0.20;;;;;;;10.41;78.74;100000.25;5133646;27;20039;-80
2022/11/16 08:42:22;;;;;;;0.10;0.10;;;;;;;10.44;78.89;99989.56;5140157;27;20031;-80
2022/11/16 08:44:49;;;;;;;0.45;0.45;;;;;;;10.49;78.81;99989.38;5135538;27;20039;-80
2022/11/16 08:47:15;;;;;;;0.10;0.10;;;;;;;10.52;78.92;99995.44;5140310;27;20037;-79
2022/11/16 08:49:41;;;;;;;0.40;0.40;;;;;;;10.56;78.92;99998.88;5123673;27;20035;-80
2022/11/16 08:52:08;;;;;;;0.10;0.10;;;;;;;10.61;78.72;99990.78;5137974;27;20043;-80
2022/11/16 08:54:34;;;;;;;0.20;0.20;;;;;;;10.66;78.45;99989.69;5132116;27;20035;-81
2022/11/16 08:57:00;;;;;;;0.15;0.15;;;;;;;10.66;78.21;99994.97;5121444;27;20083;-79
2022/11/16 08:59:26;;;;;;;0.20;0.20;;;;;;;10.75;78.24;100000.88;5117627;27;20042;-81
2022/11/16 09:01:52;;;;;;;0.10;0.10;;;;;;;10.81;78.23;99996.22;5123560;27;20027;-80
2022/11/16 09:04:19;;;;;;;0.10;0.10;;;;;;;10.88;77.69;100002.22;5132637;27;20031;-79
2022/11/16 09:06:46;;;;;;;0.10;0.10;;;;;;;10.90;77.83;100004.78;5134635;27;20027;-78
2022/11/16 09:09:12;;;;;;;0.10;0.10;;;;;;;10.96;77.68;100005.44;5124658;27;20027;-77
2022/11/16 09:11:38;;;;;;;0.20;0.20;;;;;;;10.97;77.12;100014.28;5133608;27;20030;-78
2022/11/16 09:14:04;;;;;;;0.10;0.10;;;;;;;10.99;77.51;100010.66;5124078;27;20104;-84
2022/11/16 09:16:30;;;;;;;0.10;0.10;;;;;;;11.08;77.41;100011.22;5124854;27;20031;-77
2022/11/16 09:18:56;;;;;;;0.10;0.10;;;;;;;11.11;77.21;100003.16;5128688;27;20098;-77
2022/11/16 09:21:25;;;;;;;0.15;0.15;;;;;;;11.12;76.56;100004.91;5132659;27;20508;-80
2022/11/16 09:23:53;;;;;;;0.22;0.22;;;;;;;11.07;76.60;99998.91;5123105;27;20026;-80
2022/11/16 09:26:25;;;;;;;0.17;0.17;;;;;;;11.17;76.61;100000.31;5122778;27;20020;-79
2022/11/16 09:28:55;;;;;;;0.10;0.10;;;;;;;11.15;76.49;100005.66;5122513;27;20492;-78
2022/11/16 09:31:21;;;;;;;0.40;0.40;;;;;;;11.19;76.35;99993.16;5119323;27;20049;-77
2022/11/16 09:33:48;;;;;;;0.47;0.47;;;;;;;11.29;76.33;100005.16;5126616;27;20661;-77
2022/11/16 09:36:20;;;;;;;0.10;0.10;;;;;;;11.33;75.66;100011.22;5122164;27;20411;-77
2022/11/16 09:38:48;;;;;;;0.10;0.10;;;;;;;11.29;75.59;100005.16;5124921;27;20081;-80
2022/11/16 09:49:24;;;;;;;0.10;0.10;;;;;;;11.47;75.11;100016.88;5026090;28;20389;-78
2022/11/16 09:51:54;;;;;;;0.40;0.40;;;;;;;11.53;75.21;100013.13;5019841;28;20087;-78
2022/11/16 09:54:25;;;;;;;0.52;0.52;;;;;;;11.59;75.00;100018.22;5010615;28;20057;-77
2022/11/16 09:56:56;;;;;;;0.30;0.30;;;;;;;11.65;75.10;100022.41;5021683;28;20034;-77
2022/11/16 10:02:13;;;;;;;0.20;0.20;;;;;;;11.85;74.03;100015.47;5106483;27;20798;-77
2022/11/16 10:05:02;;;;;;;0.10;0.10;;;;;;;11.91;74.31;100013.47;5106223;28;20024;-76
2022/11/16 10:07:40;;;;;;;0.20;0.20;;;;;;;11.89;73.83;100009.16;5105677;28;20043;-77
2022/11/16 10:10:12;;;;;;;0.15;0.15;;;;;;;11.97;73.85;100001.78;5091056;28;20065;-77
2022/11/16 10:15:38;;;;;;;0.17;0.17;;;;;;;12.07;74.28;100012.91;5104689;27;20913;-76
2022/11/16 10:23:48;;;;;;;0.10;0.10;;;;;;;12.25;73.41;100001.53;5060966;28;20398;-76
2022/11/16 10:26:41;;;;;;;0.17;0.17;;;;;;;12.32;72.21;99999.47;5050781;28;20029;-76
2022/11/16 10:31:58;;;;;;;0.17;0.17;;;;;;;12.41;72.36;99998.25;5064782;28;20736;-77
2022/11/16 10:34:27;;;;;;;9.15;1.55;;;;;;;12.37;72.36;99994.00;5039814;28;20033;-79
2022/11/16 10:37:02;;;;;;;0.10;0.10;;;;;;;12.47;72.35;100000.66;5049362;28;20059;-77
2022/11/16 10:39:30;;;;;;;0.10;0.10;;;;;;;12.50;71.46;99997.88;5029454;28;20065;-77
2022/11/16 10:42:01;;;;;;;0.10;0.10;;;;;;;12.56;71.75;99999.41;5030074;28;20099;-76
2022/11/16 10:44:53;;;;;;;1.17;0.55;;;;;;;12.66;71.96;99994.56;5029305;28;20033;-78
2022/11/16 10:47:45;;;;;;;0.20;0.20;;;;;;;12.66;71.05;100000.75;5029825;28;20052;-75
2022/11/16 10:50:32;;;;;;;0.10;0.10;;;;;;;12.73;70.05;100001.34;5027023;28;20022;-74
2022/11/16 10:52:59;;;;;;;0.10;0.10;;;;;;;12.79;71.23;99999.28;5027877;28;20105;-76
2022/11/16 10:55:27;;;;;;;0.10;0.10;;;;;;;12.82;70.62;100002.75;5031602;28;20025;-78
2022/11/16 11:00:36;;;;;;;0.10;0.10;;;;;;;12.89;69.42;99991.78;5108669;27;20676;-73
2022/11/16 11:03:02;;;;;;;0.10;0.10;;;;;;;12.98;70.28;99989.66;5104788;28;20031;-76
2022/11/16 11:05:29;;;;;;;0.20;0.20;;;;;;;12.97;69.05;99975.50;5101590;28;20038;-77
2022/11/16 11:08:06;;;;;;;0.10;0.10;;;;;;;13.11;68.88;99986.41;5109731;28;20461;-76
2022/11/16 11:10:37;;;;;;;10.77;1.55;;;;;;;13.11;68.26;99986.41;5105046;28;20028;-76
2022/11/16 11:15:50;;;;;;;0.95;0.95;;;;;;;13.22;68.64;99983.28;5065287;28;20368;-79
2022/11/16 11:18:26;;;;;;;0.10;0.10;;;;;;;13.32;69.05;99978.41;5049947;28;20400;-77
2022/11/16 11:23:50;;;;;;;0.10;0.10;;;;;;;13.37;68.50;99989.72;5108889;27;20382;-77
2022/11/16 11:26:30;;;;;;;0.20;0.20;;;;;;;13.43;67.29;99993.88;5100872;28;20082;-77
2022/11/16 11:28:58;;;;;;;0.13;0.13;;;;;;;13.48;67.68;99981.22;5106999;28;20035;-76
2022/11/16 11:31:37;;;;;;;0.10;0.10;;;;;;;13.48;67.42;99991.03;5094649;28;20077;-76
2022/11/16 11:34:18;;;;;;;0.30;0.30;;;;;;;13.42;66.75;100000.13;5094644;28;20039;-78
2022/11/16 11:36:51;;;;;;;0.20;0.20;;;;;;;13.38;67.50;99998.56;5102034;28;20034;-80
2022/11/16 11:44:59;;;;;;;0.17;0.17;;;;;;;13.27;66.96;99996.34;5107871;27;20473;-80
2022/11/16 11:50:20;;;;;;;1.17;1.17;;;;;;;13.37;68.38;99981.75;5050540;28;20431;-78
2022/11/16 11:53:14;;;;;;;0.10;0.10;;;;;;;13.49;68.05;99990.09;5051247;28;20701;-79
2022/11/16 11:55:40;;;;;;;0.10;0.10;;;;;;;13.47;67.22;99979.53;5043017;28;20029;-78
2022/11/16 11:58:14;;;;;;;0.32;0.32;;;;;;;13.63;67.63;99968.16;5048110;28;20053;-78
2022/11/16 12:00:56;;;;;;;0.10;0.10;;;;;;;13.66;65.94;99976.03;5038362;28;20481;-79
2022/11/16 12:06:29;;;;;;;0.10;0.10;;;;;;;13.80;65.39;99962.91;5149128;27;20380;-78
2022/11/16 12:12:11;;;;;;;0.10;0.10;;;;;;;14.08;64.34;99956.22;5112306;27;20410;-78
2022/11/16 12:15:07;;;;;;;0.10;0.10;;;;;;;14.14;63.77;99960.41;5105605;27;20028;-79
2022/11/16 12:18:02;;;;;;;0.10;0.10;;;;;;;14.20;64.31;99952.97;5104650;28;20407;-78
2022/11/16 12:20:42;;;;;;;1.45;1.35;;;;;;;14.14;62.53;99945.28;5104397;28;20047;-78
2022/11/16 12:23:48;;;;;;;0.30;0.30;;;;;;;14.24;64.21;99951.03;5114354;28;20030;-81
2022/11/16 12:26:42;;;;;;;0.10;0.10;;;;;;;14.16;62.95;99947.88;5103460;28;20040;-78
2022/11/16 12:29:27;;;;;;;0.30;0.30;;;;;;;14.10;62.94;99950.84;5107848;28;20036;-78
2022/11/16 12:35:08;;;;;;;1.98;0.77;;;;;;;13.98;62.71;99944.31;5104556;27;20415;-78
2022/11/16 12:40:49;;;;;;;0.10;0.10;;;;;;;14.03;63.88;99942.28;5088025;28;20382;-78
2022/11/16 12:46:11;;;;;;;0.10;0.10;;;;;;;14.02;63.38;99943.25;5063747;28;20407;-78
2022/11/16 12:54:33;;;;;;;0.10;0.10;;;;;;;14.01;63.48;99929.03;5112661;27;20377;-78
2022/11/16 12:57:26;;;;;;;0.10;0.10;;;;;;;14.00;64.39;99927.31;5116698;27;20042;-80
2022/11/16 13:05:20;;;;;;;0.10;0.10;;;;;;;13.93;63.18;99935.69;5108107;27;1863008;-78
2022/11/16 13:08:18;;;;;;;0.20;0.20;;;;;;;14.02;63.81;99933.44;5141320;27;20038;-78
2022/11/16 13:10:48;;;;;;;0.10;0.10;;;;;;;13.97;63.40;99931.94;5130115;27;20532;-78
2022/11/16 13:13:23;;;;;;;0.10;0.10;;;;;;;13.95;63.82;99933.81;5129723;27;20028;-78
2022/11/16 13:15:51;;;;;;;1.95;1.65;;;;;;;13.83;63.88;99928.16;5130272;27;20402;-78
2022/11/16 13:18:20;;;;;;;0.30;0.30;;;;;;;13.75;64.13;99931.16;5125466;27;20427;-78
2022/11/16 13:21:00;;;;;;;5.68;2.47;;;;;;;13.75;64.59;99930.31;5127305;27;20031;-78
2022/11/16 13:34:37;;;;;;;0.10;0.10;;;;;;;13.86;63.75;99913.84;5103084;27;20408;-78
2022/11/16 13:40:36;;;;;;;0.10;0.10;;;;;;;14.05;63.79;99913.78;5061787;28;20778;-78
2022/11/16 13:43:07;;;;;;;0.10;0.10;;;;;;;14.01;63.57;99906.91;5051194;28;20610;-78
2022/11/16 13:45:53;;;;;;;6.75;1.38;;;;;;;13.88;63.48;99906.63;5068635;28;20051;-79
2022/11/16 13:51:19;;;;;;;0.10;0.10;;;;;;;13.73;64.58;99902.91;5106880;27;20404;-78
2022/11/16 13:53:52;;;;;;;1.45;1.35;;;;;;;13.71;64.66;99908.28;5092015;28;20044;-77
2022/11/16 13:56:20;;;;;;;0.10;0.10;;;;;;;13.65;64.90;99897.09;5087494;28;20048;-78
2022/11/16 13:58:49;;;;;;;0.15;0.15;;;;;;;13.66;64.81;99896.16;5088741;28;20024;-78
2022/11/16 14:01:16;;;;;;;0.10;0.10;;;;;;;13.65;64.85;99895.28;5087872;28;20031;-78
2022/11/16 14:08:59;;;;;;;0.30;0.30;;;;;;;13.66;65.81;99890.84;5099767;27;20362;-79
2022/11/16 14:11:40;;;;;;;0.10;0.10;;;;;;;13.68;65.24;99883.63;5088322;28;20086;-79
2022/11/16 14:14:11;;;;;;;0.10;0.10;;;;;;;13.67;65.87;99873.91;5089024;28;20062;-79
2022/11/16 14:16:52;;;;;;;0.10;0.10;;;;;;;13.77;66.13;99882.31;5089654;28;20071;-79
2022/11/16 14:25:05;;;;;;;0.10;0.10;;;;;;;13.75;65.55;99869.09;5098547;27;20803;-78
2022/11/16 14:30:21;;;;;;;0.20;0.20;;;;;;;13.58;65.63;99862.78;5049675;28;20474;-77